Time,TemperatureF,DewpointF,PressureIn,WindDirection,WindDirectionDegrees,WindSpeedMPH,WindSpeedGustMPH,Humidity,HourlyPrecipIn,Conditions,Clouds,dailyrainin,SoftwareType,DateUTC
2013-05-05 00:01:00,58.8,28.3,30.07,East,101,4.0,5.0,31,0.00,,---,0.00,VWS V14.01,2013-05-05 04:01:00,
2013-05-05 00:06:00,58.4,27.9,30.07,ESE,113,6.0,6.0,31,0.00,,---,0.00,VWS V14.01,2013-05-05 04:06:00,
2013-05-05 00:11:00,58.2,27.7,30.07,East,101,5.0,6.0,31,0.00,,---,0.00,VWS V14.01,2013-05-05 04:11:00,
2013-05-05 00:16:00,57.9,28.2,30.07,ESE,117,4.0,6.0,32,0.00,,---,0.00,VWS V14.01,2013-05-05 04:16:00,
2013-05-05 00:21:00,57.7,28.8,30.07,ESE,113,2.0,5.0,33,0.00,,---,0.00,VWS V14.01,2013-05-05 04:21:00,
2013-05-05 00:26:00,57.5,28.6,30.07,ESE,111,2.0,3.0,33,0.00,,---,0.00,VWS V14.01,2013-05-05 04:26:00,
2013-05-05 00:32:00,57.4,28.5,30.07,ESE,115,2.0,4.0,33,0.00,,---,0.00,VWS V14.01,2013-05-05 04:32:00,
2013-05-05 00:37:00,57.2,28.4,30.07,ESE,103,2.0,5.0,33,0.00,,---,0.00,VWS V14.01,2013-05-05 04:37:00,
2013-05-05 00:42:00,57.1,28.3,30.07,ESE,103,2.0,4.0,33,0.00,,---,0.00,VWS V14.01,2013-05-05 04:42:00,
2013-05-05 00:47:00,57.0,28.9,30.07,ESE,105,3.0,4.0,34,0.00,,---,0.00,VWS V14.01,2013-05-05 04:47:00,
2013-05-05 00:52:00,56.9,28.8,30.08,ESE,107,4.0,4.0,34,0.00,,---,0.00,VWS V14.01,2013-05-05 04:52:00,
2013-05-05 00:57:00,56.8,28.8,30.08,East,101,4.0,4.0,34,0.00,,---,0.00,VWS V14.01,2013-05-05 04:57:00,
2013-05-05 01:02:00,56.7,28.7,30.08,East,94,3.0,3.0,34,0.00,,---,0.00,VWS V14.01,2013-05-05 05:02:00,
2013-05-05 01:07:00,56.4,29.1,30.08,East,92,5.0,5.0,35,0.00,,---,0.00,VWS V14.01,2013-05-05 05:07:00,
2013-05-05 01:12:00,56.2,29.6,30.08,East,88,3.0,4.0,36,0.00,,---,0.00,VWS V14.01,2013-05-05 05:12:00,
2013-05-05 01:17:00,55.9,29.4,30.08,East,95,4.0,4.0,36,0.00,,---,0.00,VWS V14.01,2013-05-05 05:17:00,
2013-05-05 01:22:00,55.8,29.9,30.08,East,99,3.0,3.0,37,0.00,,---,0.00,VWS V14.01,2013-05-05 05:22:00,
2013-05-05 01:27:00,55.7,29.9,30.08,East,99,3.0,3.0,37,0.00,,---,0.00,VWS V14.01,2013-05-05 05:27:00,
2013-05-05 01:32:00,55.5,29.7,30.08,East,101,3.0,3.0,37,0.00,,---,0.00,VWS V14.01,2013-05-05 05:32:00,
2013-05-05 01:37:00,55.5,29.7,30.08,ESE,107,4.0,4.0,37,0.00,,---,0.00,VWS V14.01,2013-05-05 05:37:00,
2013-05-05 01:42:00,55.3,30.1,30.07,ESE,113,4.0,5.0,38,0.00,,---,0.00,VWS V14.01,2013-05-05 05:42:00,
2013-05-05 01:47:00,55.1,30.0,30.08,ESE,109,4.0,4.0,38,0.00,,---,0.00,VWS V14.01,2013-05-05 05:47:00,
2013-05-05 01:52:00,54.8,30.3,30.07,ESE,113,4.0,4.0,39,0.00,,---,0.00,VWS V14.01,2013-05-05 05:52:00,
2013-05-05 01:57:00,54.5,30.1,30.07,ESE,116,4.0,4.0,39,0.00,,---,0.00,VWS V14.01,2013-05-05 05:57:00,
2013-05-05 02:02:00,54.2,30.4,30.08,ESE,114,2.0,3.0,40,0.00,,---,0.00,VWS V14.01,2013-05-05 06:02:00,
2013-05-05 02:07:00,53.9,30.1,30.08,ESE,114,0.0,0.0,40,0.00,,---,0.00,VWS V14.01,2013-05-05 06:07:00,
2013-05-05 02:12:00,53.7,30.6,30.08,ESE,114,0.0,0.0,41,0.00,,---,0.00,VWS V14.01,2013-05-05 06:12:00,
2013-05-05 02:17:00,53.4,30.3,30.07,ESE,114,0.0,0.0,41,0.00,,---,0.00,VWS V14.01,2013-05-05 06:17:00,
2013-05-05 02:22:00,53.2,30.1,30.07,ESE,114,0.0,0.0,41,0.00,,---,0.00,VWS V14.01,2013-05-05 06:22:00,
2013-05-05 02:27:00,53.0,30.5,30.07,ESE,114,0.0,0.0,42,0.00,,---,0.00,VWS V14.01,2013-05-05 06:27:00,
2013-05-05 02:32:00,52.9,30.5,30.07,ESE,114,0.0,0.0,42,0.00,,---,0.00,VWS V14.01,2013-05-05 06:32:00,
2013-05-05 02:37:00,52.9,30.5,30.07,ESE,114,0.0,0.0,42,0.00,,---,0.00,VWS V14.01,2013-05-05 06:37:00,
2013-05-05 02:42:00,53.1,30.6,30.07,ESE,114,0.0,0.0,42,0.00,,---,0.00,VWS V14.01,2013-05-05 06:42:00,
2013-05-05 02:47:00,53.2,30.7,30.07,ESE,114,2.0,2.0,42,0.00,,---,0.00,VWS V14.01,2013-05-05 06:47:00,
2013-05-05 02:52:00,53.2,31.3,30.07,SSE,150,2.0,3.0,43,0.00,,---,0.00,VWS V14.01,2013-05-05 06:52:00,
2013-05-05 02:57:00,53.3,31.4,30.07,SSE,152,0.0,2.0,43,0.00,,---,0.00,VWS V14.01,2013-05-05 06:57:00,
2013-05-05 03:02:00,53.2,31.9,30.07,SE,145,3.0,3.0,44,0.00,,---,0.00,VWS V14.01,2013-05-05 07:02:00,
2013-05-05 03:07:00,53.1,31.8,30.07,SE,142,0.0,1.0,44,0.00,,---,0.00,VWS V14.01,2013-05-05 07:07:00,
2013-05-05 03:12:00,53.0,32.2,30.07,SE,137,3.0,3.0,45,0.00,,---,0.00,VWS V14.01,2013-05-05 07:12:00,
2013-05-05 03:17:00,52.8,32.1,30.07,ESE,123,0.0,0.0,45,0.00,,---,0.00,VWS V14.01,2013-05-05 07:17:00,
2013-05-05 03:23:00,52.7,32.5,30.07,ESE,113,0.0,1.0,46,0.00,,---,0.00,VWS V14.01,2013-05-05 07:23:00,
2013-05-05 03:28:00,52.6,33.0,30.07,ESE,119,0.0,2.0,47,0.00,,---,0.00,VWS V14.01,2013-05-05 07:28:00,
2013-05-05 03:33:00,52.4,32.8,30.07,ESE,105,0.0,1.0,47,0.00,,---,0.00,VWS V14.01,2013-05-05 07:33:00,
2013-05-05 03:38:00,52.3,32.7,30.06,ESE,110,2.0,2.0,47,0.00,,---,0.00,VWS V14.01,2013-05-05 07:38:00,
2013-05-05 03:43:00,52.1,33.0,30.06,ESE,113,1.0,3.0,48,0.00,,---,0.00,VWS V14.01,2013-05-05 07:43:00,
2013-05-05 03:48:00,52.0,32.9,30.06,ESE,117,3.0,4.0,48,0.00,,---,0.00,VWS V14.01,2013-05-05 07:48:00,
2013-05-05 03:53:00,51.7,32.7,30.07,ESE,114,0.0,0.0,48,0.00,,---,0.00,VWS V14.01,2013-05-05 07:53:00,
2013-05-05 03:58:00,51.6,33.1,30.06,ESE,115,0.0,1.0,49,0.00,,---,0.00,VWS V14.01,2013-05-05 07:58:00,
2013-05-05 04:03:00,51.5,33.0,30.06,ESE,107,0.0,2.0,49,0.00,,---,0.00,VWS V14.01,2013-05-05 08:03:00,
2013-05-05 04:08:00,51.4,33.4,30.06,ESE,107,0.0,0.0,50,0.00,,---,0.00,VWS V14.01,2013-05-05 08:08:00,
2013-05-05 04:13:00,51.3,33.3,30.06,ESE,109,0.0,1.0,50,0.00,,---,0.00,VWS V14.01,2013-05-05 08:13:00,
2013-05-05 04:18:00,51.3,33.3,30.06,ESE,111,0.0,0.0,50,0.00,,---,0.00,VWS V14.01,2013-05-05 08:18:00,
2013-05-05 04:23:00,51.2,33.7,30.06,ESE,114,0.0,2.0,51,0.00,,---,0.00,VWS V14.01,2013-05-05 08:23:00,
2013-05-05 04:28:00,51.1,33.6,30.06,ESE,117,0.0,2.0,51,0.00,,---,0.00,VWS V14.01,2013-05-05 08:28:00,
2013-05-05 04:33:00,50.9,33.9,30.06,ESE,117,2.0,3.0,52,0.00,,---,0.00,VWS V14.01,2013-05-05 08:33:00,
2013-05-05 04:38:00,50.7,33.7,30.06,ESE,114,1.0,3.0,52,0.00,,---,0.00,VWS V14.01,2013-05-05 08:38:00,
2013-05-05 04:43:00,50.5,34.0,30.06,ESE,115,0.0,2.0,53,0.00,,---,0.00,VWS V14.01,2013-05-05 08:43:00,
2013-05-05 04:48:00,50.3,33.8,30.06,ESE,116,0.0,0.0,53,0.00,,---,0.00,VWS V14.01,2013-05-05 08:48:00,
2013-05-05 04:53:00,50.0,34.0,30.06,ESE,116,0.0,0.0,54,0.00,,---,0.00,VWS V14.01,2013-05-05 08:53:00,
2013-05-05 04:58:00,49.9,33.9,30.06,ESE,117,0.0,1.0,54,0.00,,---,0.00,VWS V14.01,2013-05-05 08:58:00,
2013-05-05 05:03:00,49.7,34.2,30.06,ESE,117,0.0,0.0,55,0.00,,---,0.00,VWS V14.01,2013-05-05 09:03:00,
2013-05-05 05:08:00,49.5,34.0,30.06,ESE,117,0.0,0.0,55,0.00,,---,0.00,VWS V14.01,2013-05-05 09:08:00,
2013-05-05 05:13:00,49.4,34.4,30.06,ESE,117,0.0,1.0,56,0.00,,---,0.00,VWS V14.01,2013-05-05 09:13:00,
2013-05-05 05:18:00,49.2,34.2,30.06,ESE,117,0.0,0.0,56,0.00,,---,0.00,VWS V14.01,2013-05-05 09:18:00,
2013-05-05 05:23:00,49.0,34.0,30.06,ESE,123,2.0,3.0,56,0.00,,---,0.00,VWS V14.01,2013-05-05 09:23:00,
2013-05-05 05:28:00,48.9,34.3,30.06,ESE,122,0.0,2.0,57,0.00,,---,0.00,VWS V14.01,2013-05-05 09:28:00,
2013-05-05 05:33:00,48.8,34.3,30.06,SE,130,0.0,1.0,57,0.00,,---,0.00,VWS V14.01,2013-05-05 09:33:00,
2013-05-05 05:38:00,48.6,34.1,30.06,SE,130,2.0,2.0,57,0.00,,---,0.00,VWS V14.01,2013-05-05 09:38:00,
2013-05-05 05:43:00,48.5,34.4,30.06,SE,130,2.0,2.0,58,0.00,,---,0.00,VWS V14.01,2013-05-05 09:43:00,
2013-05-05 05:48:00,48.5,34.4,30.06,SSE,160,1.0,2.0,58,0.00,,---,0.00,VWS V14.01,2013-05-05 09:48:00,
2013-05-05 05:53:00,48.5,34.4,30.06,South,175,2.0,3.0,58,0.00,,---,0.00,VWS V14.01,2013-05-05 09:53:00,
2013-05-05 05:59:00,48.5,34.4,30.07,South,175,2.0,2.0,58,0.00,,---,0.00,VWS V14.01,2013-05-05 09:59:00,
2013-05-05 06:04:00,48.5,34.4,30.07,South,175,1.0,2.0,58,0.00,,---,0.00,VWS V14.01,2013-05-05 10:04:00,
2013-05-05 06:09:00,48.6,34.5,30.07,South,175,0.0,0.0,58,0.00,,---,0.00,VWS V14.01,2013-05-05 10:09:00,
2013-05-05 06:14:00,48.7,34.6,30.07,South,175,0.0,2.0,58,0.00,,---,0.00,VWS V14.01,2013-05-05 10:14:00,
2013-05-05 06:19:00,48.8,34.7,30.07,South,175,2.0,2.0,58,0.00,,---,0.00,VWS V14.01,2013-05-05 10:19:00,
2013-05-05 06:24:00,48.8,34.7,30.07,South,175,0.0,2.0,58,0.00,,---,0.00,VWS V14.01,2013-05-05 10:24:00,
2013-05-05 06:29:00,48.6,36.2,30.07,South,175,0.0,0.0,62,0.00,,---,0.00,VWS V14.01,2013-05-05 10:29:00,
2013-05-05 06:34:00,48.2,37.0,30.07,South,175,0.0,0.0,65,0.00,,---,0.00,VWS V14.01,2013-05-05 10:34:00,
2013-05-05 06:39:00,47.7,37.7,30.07,South,175,1.0,2.0,68,0.00,,---,0.00,VWS V14.01,2013-05-05 10:39:00,
2013-05-05 06:44:00,47.4,36.2,30.08,South,175,0.0,0.0,65,0.00,,---,0.00,VWS V14.01,2013-05-05 10:44:00,
2013-05-05 06:49:00,47.5,35.5,30.08,South,175,0.0,0.0,63,0.00,,---,0.00,VWS V14.01,2013-05-05 10:49:00,
2013-05-05 06:54:00,47.8,35.8,30.08,South,175,0.0,0.0,63,0.00,,---,0.00,VWS V14.01,2013-05-05 10:54:00,
2013-05-05 06:59:00,48.1,36.1,30.08,South,175,0.0,1.0,63,0.00,,---,0.00,VWS V14.01,2013-05-05 10:59:00,
2013-05-05 07:04:00,48.3,35.9,30.08,South,175,1.0,2.0,62,0.00,,---,0.00,VWS V14.01,2013-05-05 11:04:00,
2013-05-05 07:09:00,48.4,35.6,30.08,South,175,0.0,0.0,61,0.00,,---,0.00,VWS V14.01,2013-05-05 11:09:00,
2013-05-05 07:14:00,48.6,35.8,30.08,South,175,0.0,1.0,61,0.00,,---,0.00,VWS V14.01,2013-05-05 11:14:00,
2013-05-05 07:19:00,48.9,36.1,30.08,South,175,0.0,0.0,61,0.00,,---,0.00,VWS V14.01,2013-05-05 11:19:00,
2013-05-05 07:24:00,49.4,36.5,30.08,South,175,0.0,0.0,61,0.00,,---,0.00,VWS V14.01,2013-05-05 11:24:00,
2013-05-05 07:29:00,50.3,37.4,30.08,South,175,0.0,1.0,61,0.00,,---,0.00,VWS V14.01,2013-05-05 11:29:00,
2013-05-05 07:34:00,51.4,38.4,30.08,South,175,0.0,2.0,61,0.00,,---,0.00,VWS V14.01,2013-05-05 11:34:00,
2013-05-05 07:39:00,52.2,38.8,30.09,East,101,0.0,2.0,60,0.00,,---,0.00,VWS V14.01,2013-05-05 11:39:00,
2013-05-05 07:44:00,52.9,39.0,30.08,ESE,111,3.0,3.0,59,0.00,,---,0.00,VWS V14.01,2013-05-05 11:44:00,
2013-05-05 07:49:00,53.5,39.1,30.08,ESE,118,1.0,3.0,58,0.00,,---,0.00,VWS V14.01,2013-05-05 11:49:00,
2013-05-05 07:54:00,53.8,39.4,30.08,ESE,117,2.0,2.0,58,0.00,,---,0.00,VWS V14.01,2013-05-05 11:54:00,
2013-05-05 07:59:00,54.0,40.0,30.09,ESE,113,3.0,4.0,59,0.00,,---,0.00,VWS V14.01,2013-05-05 11:59:00,
2013-05-05 08:04:00,54.3,39.0,30.09,SE,132,1.0,5.0,56,0.00,,---,0.00,VWS V14.01,2013-05-05 12:04:00,
2013-05-05 08:09:00,54.7,39.8,30.09,ESE,107,0.0,4.0,57,0.00,,---,0.00,VWS V14.01,2013-05-05 12:09:00,
2013-05-05 08:14:00,55.3,39.9,30.09,East,100,3.0,3.0,56,0.00,,---,0.00,VWS V14.01,2013-05-05 12:14:00,
2013-05-05 08:19:00,55.7,39.8,30.09,ESE,108,1.0,4.0,55,0.00,,---,0.00,VWS V14.01,2013-05-05 12:19:00,
2013-05-05 08:24:00,56.0,39.6,30.09,ESE,111,3.0,5.0,54,0.00,,---,0.00,VWS V14.01,2013-05-05 12:24:00,
2013-05-05 08:29:00,56.4,39.5,30.09,ESE,107,2.0,2.0,53,0.00,,---,0.00,VWS V14.01,2013-05-05 12:29:00,
2013-05-05 08:34:00,56.8,40.3,30.09,ESE,113,3.0,4.0,54,0.00,,---,0.00,VWS V14.01,2013-05-05 12:34:00,
2013-05-05 08:40:00,57.2,40.2,30.09,East,92,1.0,3.0,53,0.00,,---,0.00,VWS V14.01,2013-05-05 12:40:00,
2013-05-05 08:45:00,57.8,41.3,30.09,East,95,2.0,3.0,54,0.00,,---,0.00,VWS V14.01,2013-05-05 12:45:00,
2013-05-05 08:50:00,57.8,41.3,30.09,East,79,3.0,4.0,54,0.00,,---,0.00,VWS V14.01,2013-05-05 12:50:00,
2013-05-05 08:55:00,57.3,41.8,30.09,East,81,3.0,4.0,56,0.00,,---,0.00,VWS V14.01,2013-05-05 12:55:00,
2013-05-05 09:00:00,57.7,42.1,30.09,East,88,3.0,4.0,56,0.00,,---,0.00,VWS V14.01,2013-05-05 13:00:00,
2013-05-05 09:05:00,58.6,42.0,30.09,ESE,102,0.0,3.0,54,0.00,,---,0.00,VWS V14.01,2013-05-05 13:05:00,
2013-05-05 09:10:00,59.9,41.8,30.09,ESE,108,1.0,5.0,51,0.00,,---,0.00,VWS V14.01,2013-05-05 13:10:00,
2013-05-05 09:15:00,61.2,42.4,30.09,East,101,2.0,3.0,50,0.00,,---,0.00,VWS V14.01,2013-05-05 13:15:00,
2013-05-05 09:20:00,62.4,41.9,30.09,ESE,109,2.0,3.0,47,0.00,,---,0.00,VWS V14.01,2013-05-05 13:20:00,
2013-05-05 09:25:00,63.4,41.7,30.09,ESE,115,1.0,4.0,45,0.00,,---,0.00,VWS V14.01,2013-05-05 13:25:00,
2013-05-05 09:30:00,64.3,41.9,30.09,ESE,111,0.0,3.0,44,0.00,,---,0.00,VWS V14.01,2013-05-05 13:30:00,
2013-05-05 09:35:00,65.0,42.0,30.09,East,84,2.0,3.0,43,0.00,,---,0.00,VWS V14.01,2013-05-05 13:35:00,
2013-05-05 09:40:00,64.6,42.2,30.09,ENE,77,1.0,3.0,44,0.00,,---,0.00,VWS V14.01,2013-05-05 13:40:00,
2013-05-05 09:45:00,63.9,41.6,30.08,East,82,3.0,4.0,44,0.00,,---,0.00,VWS V14.01,2013-05-05 13:45:00,
2013-05-05 09:50:00,63.6,41.9,30.09,East,81,0.0,2.0,45,0.00,,---,0.00,VWS V14.01,2013-05-05 13:50:00,
2013-05-05 09:55:00,63.6,41.9,30.08,East,80,0.0,4.0,45,0.00,,---,0.00,VWS V14.01,2013-05-05 13:55:00,
2013-05-05 10:00:00,64.2,42.4,30.08,ESE,114,1.0,3.0,45,0.00,,---,0.00,VWS V14.01,2013-05-05 14:00:00,
2013-05-05 10:05:00,64.6,43.4,30.08,East,80,2.0,4.0,46,0.00,,---,0.00,VWS V14.01,2013-05-05 14:05:00,
2013-05-05 10:10:00,64.6,43.4,30.08,ENE,77,2.0,4.0,46,0.00,,---,0.00,VWS V14.01,2013-05-05 14:10:00,
2013-05-05 10:15:00,63.9,43.3,30.08,NE,51,0.0,4.0,47,0.00,,---,0.00,VWS V14.01,2013-05-05 14:15:00,
2013-05-05 10:20:00,63.9,42.2,30.08,NE,54,3.0,4.0,45,0.00,,---,0.00,VWS V14.01,2013-05-05 14:20:00,
2013-05-05 10:25:00,64.1,43.5,30.08,NE,47,1.0,4.0,47,0.00,,---,0.00,VWS V14.01,2013-05-05 14:25:00,
2013-05-05 10:30:00,64.3,42.5,30.08,NE,55,4.0,4.0,45,0.00,,---,0.00,VWS V14.01,2013-05-05 14:30:00,
2013-05-05 10:35:00,64.5,42.1,30.08,ENE,57,0.0,1.0,44,0.00,,---,0.00,VWS V14.01,2013-05-05 14:35:00,
2013-05-05 10:40:00,65.1,42.7,30.08,ENE,57,0.0,4.0,44,0.00,,---,0.00,VWS V14.01,2013-05-05 14:40:00,
2013-05-05 10:45:00,66.0,42.9,30.08,East,87,0.0,5.0,43,0.00,,---,0.00,VWS V14.01,2013-05-05 14:45:00,
2013-05-05 10:50:00,66.8,43.0,30.08,ESE,110,0.0,4.0,42,0.00,,---,0.00,VWS V14.01,2013-05-05 14:50:00,
2013-05-05 10:55:00,67.5,41.7,30.08,ENE,65,2.0,5.0,39,0.00,,---,0.00,VWS V14.01,2013-05-05 14:55:00,
2013-05-05 11:00:00,67.8,42.6,30.08,NE,56,3.0,5.0,40,0.00,,---,0.00,VWS V14.01,2013-05-05 15:00:00,
2013-05-05 11:05:00,67.8,42.6,30.08,NE,42,4.0,5.0,40,0.00,,---,0.00,VWS V14.01,2013-05-05 15:05:00,
2013-05-05 11:10:00,67.8,42.0,30.08,NE,54,0.0,3.0,39,0.00,,---,0.00,VWS V14.01,2013-05-05 15:10:00,
2013-05-05 11:16:00,68.1,42.2,30.08,ENE,65,0.0,5.0,39,0.00,,---,0.00,VWS V14.01,2013-05-05 15:16:00,
2013-05-05 11:21:00,68.4,42.5,30.08,NE,55,2.0,5.0,39,0.00,,---,0.00,VWS V14.01,2013-05-05 15:21:00,
2013-05-05 11:26:00,68.7,42.1,30.08,ENE,57,5.0,6.0,38,0.00,,---,0.00,VWS V14.01,2013-05-05 15:26:00,
2013-05-05 11:31:00,69.0,43.0,30.08,NE,45,1.0,6.0,39,0.00,,---,0.00,VWS V14.01,2013-05-05 15:31:00,
2013-05-05 11:36:00,69.5,41.4,30.07,NNE,21,5.0,9.0,36,0.00,,---,0.00,VWS V14.01,2013-05-05 15:36:00,
2013-05-05 11:41:00,69.7,40.8,30.07,NNE,28,6.0,10.0,35,0.00,,---,0.00,VWS V14.01,2013-05-05 15:41:00,
2013-05-05 11:46:00,70.1,42.7,30.07,ENE,58,6.0,8.0,37,0.00,,---,0.00,VWS V14.01,2013-05-05 15:46:00,
2013-05-05 11:51:00,70.5,42.3,30.07,NE,42,6.0,11.0,36,0.00,,---,0.00,VWS V14.01,2013-05-05 15:51:00,
2013-05-05 11:56:00,70.5,42.3,30.07,ENE,65,10.0,10.0,36,0.00,,---,0.00,VWS V14.01,2013-05-05 15:56:00,
2013-05-05 12:01:00,70.9,41.9,30.07,NNE,19,11.0,11.0,35,0.00,,---,0.00,VWS V14.01,2013-05-05 16:01:00,
2013-05-05 12:06:00,71.0,42.0,30.07,ENE,59,12.0,12.0,35,0.00,,---,0.00,VWS V14.01,2013-05-05 16:06:00,
2013-05-05 12:11:00,71.0,41.2,30.07,NNE,26,7.0,10.0,34,0.00,,---,0.00,VWS V14.01,2013-05-05 16:11:00,
2013-05-05 12:16:00,71.1,41.3,30.07,NE,47,6.0,14.0,34,0.00,,---,0.00,VWS V14.01,2013-05-05 16:16:00,
2013-05-05 12:21:00,71.1,41.3,30.07,NE,41,6.0,11.0,34,0.00,,---,0.00,VWS V14.01,2013-05-05 16:21:00,
2013-05-05 12:26:00,71.1,41.3,30.07,NE,55,5.0,12.0,34,0.00,,---,0.00,VWS V14.01,2013-05-05 16:26:00,
2013-05-05 12:31:00,70.9,41.9,30.06,NE,35,7.0,11.0,35,0.00,,---,0.00,VWS V14.01,2013-05-05 16:31:00,
2013-05-05 12:36:00,71.1,42.1,30.06,NE,37,9.0,12.0,35,0.00,,---,0.00,VWS V14.01,2013-05-05 16:36:00,
2013-05-05 12:41:00,71.3,40.7,30.06,NE,52,6.0,9.0,33,0.00,,---,0.00,VWS V14.01,2013-05-05 16:41:00,
2013-05-05 12:46:00,71.3,41.5,30.06,NNE,30,4.0,10.0,34,0.00,,---,0.00,VWS V14.01,2013-05-05 16:46:00,
2013-05-05 12:51:00,70.8,44.0,30.06,NE,38,9.0,12.0,38,0.00,,---,0.00,VWS V14.01,2013-05-05 16:51:00,
2013-05-05 12:56:00,70.5,43.0,30.05,North,11,14.0,17.0,37,0.00,,---,0.00,VWS V14.01,2013-05-05 16:56:00,
2013-05-05 13:01:00,69.8,43.8,30.05,NNE,13,8.0,16.0,39,0.00,,---,0.00,VWS V14.01,2013-05-05 17:01:00,
2013-05-05 13:06:00,69.8,41.7,30.05,North,11,13.0,18.0,36,0.00,,---,0.00,VWS V14.01,2013-05-05 17:06:00,
2013-05-05 13:11:00,69.9,41.8,30.05,NNE,13,11.0,17.0,36,0.00,,---,0.00,VWS V14.01,2013-05-05 17:11:00,
2013-05-05 13:17:00,70.0,42.6,30.05,North,9,9.0,18.0,37,0.00,,---,0.00,VWS V14.01,2013-05-05 17:17:00,
2013-05-05 13:22:00,70.6,43.1,30.05,NE,38,11.0,17.0,37,0.00,,---,0.00,VWS V14.01,2013-05-05 17:22:00,
2013-05-05 13:27:00,70.6,42.4,30.05,North,9,12.0,14.0,36,0.00,,---,0.00,VWS V14.01,2013-05-05 17:27:00,
2013-05-05 13:32:00,70.4,41.5,30.05,North,5,5.0,14.0,35,0.00,,---,0.00,VWS V14.01,2013-05-05 17:32:00,
2013-05-05 13:37:00,70.0,44.6,30.05,WNW,288,1.0,5.0,40,0.00,,---,0.00,VWS V14.01,2013-05-05 17:37:00,
2013-05-05 13:42:00,69.6,43.6,30.05,NNE,14,0.0,10.0,39,0.00,,---,0.00,VWS V14.01,2013-05-05 17:42:00,
2013-05-05 13:47:00,69.3,45.9,30.05,NNW,338,0.0,7.0,43,0.00,,---,0.00,VWS V14.01,2013-05-05 17:47:00,
2013-05-05 13:52:00,69.3,45.9,30.05,NW,321,0.0,10.0,43,0.00,,---,0.00,VWS V14.01,2013-05-05 17:52:00,
2013-05-05 13:57:00,68.4,46.2,30.05,WNW,292,5.0,9.0,45,0.00,,---,0.00,VWS V14.01,2013-05-05 17:57:00,
2013-05-05 14:02:00,67.4,44.2,30.05,NW,311,0.0,9.0,43,0.00,,---,0.00,VWS V14.01,2013-05-05 18:02:00,
2013-05-05 14:07:00,66.6,43.4,30.05,West,277,0.0,9.0,43,0.00,,---,0.00,VWS V14.01,2013-05-05 18:07:00,
2013-05-05 14:12:00,66.1,41.7,30.05,WNW,295,6.0,10.0,41,0.00,,---,0.00,VWS V14.01,2013-05-05 18:12:00,
2013-05-05 14:17:00,66.2,41.8,30.05,West,274,5.0,12.0,41,0.00,,---,0.00,VWS V14.01,2013-05-05 18:17:00,
2013-05-05 14:22:00,66.6,41.5,30.05,WNW,300,0.0,6.0,40,0.00,,---,0.00,VWS V14.01,2013-05-05 18:22:00,
2013-05-05 14:27:00,66.6,42.2,30.05,NNE,13,12.0,12.0,41,0.00,,---,0.00,VWS V14.01,2013-05-05 18:27:00,
2013-05-05 14:32:00,66.1,41.7,30.05,North,5,3.0,14.0,41,0.00,,---,0.00,VWS V14.01,2013-05-05 18:32:00,
2013-05-05 14:37:00,66.5,43.3,30.05,NNW,333,1.0,12.0,43,0.00,,---,0.00,VWS V14.01,2013-05-05 18:37:00,
2013-05-05 14:42:00,67.5,42.3,30.04,NW,322,2.0,11.0,40,0.00,,---,0.00,VWS V14.01,2013-05-05 18:42:00,
2013-05-05 14:47:00,68.0,42.1,30.04,NNW,341,0.0,9.0,39,0.00,,---,0.00,VWS V14.01,2013-05-05 18:47:00,
2013-05-05 14:52:00,67.7,43.2,30.05,NNW,331,4.0,7.0,41,0.00,,---,0.00,VWS V14.01,2013-05-05 18:52:00,
2013-05-05 14:57:00,67.5,41.7,30.04,North,11,0.0,6.0,39,0.00,,---,0.00,VWS V14.01,2013-05-05 18:57:00,
2013-05-05 15:02:00,67.1,42.0,30.04,NW,325,3.0,11.0,40,0.00,,---,0.00,VWS V14.01,2013-05-05 19:02:00,
2013-05-05 15:07:00,66.9,41.2,30.04,North,5,8.0,11.0,39,0.00,,---,0.00,VWS V14.01,2013-05-05 19:07:00,
2013-05-05 15:12:00,66.3,42.5,30.04,North,11,1.0,8.0,42,0.00,,---,0.00,VWS V14.01,2013-05-05 19:12:00,
2013-05-05 15:17:00,66.8,42.4,30.04,NNW,336,1.0,6.0,41,0.00,,---,0.00,VWS V14.01,2013-05-05 19:17:00,
2013-05-05 15:22:00,67.6,42.4,30.04,NNW,338,0.0,4.0,40,0.00,,---,0.00,VWS V14.01,2013-05-05 19:22:00,
2013-05-05 15:27:00,68.1,41.6,30.04,NNE,22,3.0,11.0,38,0.00,,---,0.00,VWS V14.01,2013-05-05 19:27:00,
2013-05-05 15:32:00,67.4,43.5,30.04,North,360,0.0,6.0,42,0.00,,---,0.00,VWS V14.01,2013-05-05 19:32:00,
2013-05-05 15:37:00,67.6,43.7,30.03,North,360,9.0,11.0,42,0.00,,---,0.00,VWS V14.01,2013-05-05 19:37:00,
2013-05-05 15:42:00,66.7,41.0,30.03,NNE,19,3.0,13.0,39,0.00,,---,0.00,VWS V14.01,2013-05-05 19:42:00,
2013-05-05 15:47:00,66.7,40.3,30.03,WSW,254,2.0,11.0,38,0.00,,---,0.00,VWS V14.01,2013-05-05 19:47:00,
2013-05-05 15:52:00,67.2,40.1,30.03,NNW,340,2.0,9.0,37,0.00,,---,0.00,VWS V14.01,2013-05-05 19:52:00,
2013-05-05 15:57:00,66.8,40.4,30.02,NW,304,5.0,14.0,38,0.00,,---,0.00,VWS V14.01,2013-05-05 19:57:00,
2013-05-05 16:02:00,66.7,39.6,30.03,NNW,342,4.0,10.0,37,0.00,,---,0.00,VWS V14.01,2013-05-05 20:02:00,
2013-05-05 16:07:00,66.5,39.5,30.02,North,355,2.0,9.0,37,0.00,,---,0.00,VWS V14.01,2013-05-05 20:07:00,
2013-05-05 16:12:00,66.5,38.8,30.02,North,355,11.0,11.0,36,0.00,,---,0.00,VWS V14.01,2013-05-05 20:12:00,
2013-05-05 16:17:00,66.0,40.4,30.02,North,355,5.0,11.0,39,0.00,,---,0.00,VWS V14.01,2013-05-05 20:17:00,
2013-05-05 16:22:00,65.7,39.4,30.02,NNW,329,1.0,13.0,38,0.00,,---,0.00,VWS V14.01,2013-05-05 20:22:00,
2013-05-05 16:27:00,65.4,39.8,30.02,NW,325,2.0,13.0,39,0.00,,---,0.00,VWS V14.01,2013-05-05 20:27:00,
2013-05-05 16:32:00,65.2,40.3,30.02,NNE,13,0.0,11.0,40,0.00,,---,0.00,VWS V14.01,2013-05-05 20:32:00,
2013-05-05 16:37:00,65.0,40.1,30.02,NNW,340,0.0,11.0,40,0.00,,---,0.00,VWS V14.01,2013-05-05 20:37:00,
2013-05-05 16:42:00,65.0,40.8,30.02,North,5,4.0,10.0,41,0.00,,---,0.00,VWS V14.01,2013-05-05 20:42:00,
2013-05-05 16:47:00,64.7,40.5,30.02,NNW,329,6.0,9.0,41,0.00,,---,0.00,VWS V14.01,2013-05-05 20:47:00,
2013-05-05 16:52:00,64.5,40.3,30.01,NNW,344,5.0,11.0,41,0.00,,---,0.00,VWS V14.01,2013-05-05 20:52:00,
2013-05-05 16:57:00,63.9,39.8,30.01,North,360,4.0,11.0,41,0.00,,---,0.00,VWS V14.01,2013-05-05 20:57:00,
2013-05-05 17:02:00,64.2,40.7,30.01,North,5,2.0,10.0,42,0.00,,---,0.00,VWS V14.01,2013-05-05 21:02:00,
2013-05-05 17:07:00,64.5,40.9,30.01,North,11,4.0,11.0,42,0.00,,---,0.00,VWS V14.01,2013-05-05 21:07:00,
2013-05-05 17:12:00,64.6,40.4,30.01,North,360,3.0,13.0,41,0.00,,---,0.00,VWS V14.01,2013-05-05 21:12:00,
2013-05-05 17:17:00,64.8,40.6,30.00,North,349,0.0,6.0,41,0.00,,---,0.00,VWS V14.01,2013-05-05 21:17:00,
2013-05-05 17:22:00,65.0,42.0,30.00,NNE,18,4.0,5.0,43,0.00,,---,0.00,VWS V14.01,2013-05-05 21:22:00,
2013-05-05 17:27:00,64.9,42.5,30.00,NNW,336,2.0,5.0,44,0.00,,---,0.00,VWS V14.01,2013-05-05 21:27:00,
2013-05-05 17:32:00,64.9,41.9,30.00,WNW,286,3.0,7.0,43,0.00,,---,0.00,VWS V14.01,2013-05-05 21:32:00,
2013-05-05 17:37:00,65.8,42.1,30.00,WNW,295,1.0,4.0,42,0.00,,---,0.00,VWS V14.01,2013-05-05 21:37:00,
2013-05-05 17:42:00,66.5,43.3,30.00,WNW,292,3.0,5.0,43,0.00,,---,0.00,VWS V14.01,2013-05-05 21:42:00,
2013-05-05 17:47:00,67.0,42.5,30.00,WNW,284,0.0,6.0,41,0.00,,---,0.00,VWS V14.01,2013-05-05 21:47:00,
2013-05-05 17:52:00,67.1,43.3,30.00,NW,315,0.0,9.0,42,0.00,,---,0.00,VWS V14.01,2013-05-05 21:52:00,
2013-05-05 17:57:00,67.2,42.7,30.00,West,271,1.0,6.0,41,0.00,,---,0.00,VWS V14.01,2013-05-05 21:57:00,
2013-05-05 18:02:00,67.1,43.3,29.99,WNW,292,0.0,4.0,42,0.00,,---,0.00,VWS V14.01,2013-05-05 22:02:00,
2013-05-05 18:07:00,67.5,43.0,29.99,West,280,1.0,4.0,41,0.00,,---,0.00,VWS V14.01,2013-05-05 22:07:00,
2013-05-05 18:12:00,68.1,42.9,29.99,WNW,302,0.0,5.0,40,0.00,,---,0.00,VWS V14.01,2013-05-05 22:12:00,
2013-05-05 18:17:00,68.6,43.3,29.99,NW,316,0.0,7.0,40,0.00,,---,0.00,VWS V14.01,2013-05-05 22:17:00,
2013-05-05 18:22:00,69.0,44.3,29.99,NNW,327,0.0,6.0,41,0.00,,---,0.00,VWS V14.01,2013-05-05 22:22:00,
2013-05-05 18:27:00,69.7,43.7,29.99,WNW,294,0.0,0.0,39,0.00,,---,0.00,VWS V14.01,2013-05-05 22:27:00,
2013-05-05 18:32:00,70.3,44.2,29.99,NW,304,0.0,0.0,39,0.00,,---,0.00,VWS V14.01,2013-05-05 22:32:00,
2013-05-05 18:37:00,70.7,44.5,29.99,WNW,286,4.0,5.0,39,0.00,,---,0.00,VWS V14.01,2013-05-05 22:37:00,
2013-05-05 18:42:00,70.3,44.9,29.99,WNW,284,4.0,4.0,40,0.00,,---,0.00,VWS V14.01,2013-05-05 22:42:00,
2013-05-05 18:47:00,70.2,45.4,29.98,NW,306,1.0,1.0,41,0.00,,---,0.00,VWS V14.01,2013-05-05 22:47:00,
2013-05-05 18:52:00,69.8,43.8,29.99,NNW,331,0.0,0.0,39,0.00,,---,0.00,VWS V14.01,2013-05-05 22:52:00,
2013-05-05 18:57:00,69.3,44.6,29.99,North,10,0.0,0.0,41,0.00,,---,0.00,VWS V14.01,2013-05-05 22:57:00,
2013-05-05 19:02:00,68.6,44.6,29.98,NNE,23,0.0,0.0,42,0.00,,---,0.00,VWS V14.01,2013-05-05 23:02:00,
2013-05-05 19:07:00,68.8,44.8,29.98,NNW,339,0.0,1.0,42,0.00,,---,0.00,VWS V14.01,2013-05-05 23:07:00,
2013-05-05 19:12:00,69.0,45.0,29.98,North,360,0.0,4.0,42,0.00,,---,0.00,VWS V14.01,2013-05-05 23:12:00,
2013-05-05 19:17:00,68.3,45.0,29.98,NNE,18,0.0,3.0,43,0.00,,---,0.00,VWS V14.01,2013-05-05 23:17:00,
2013-05-05 19:22:00,67.5,43.6,29.98,NNW,344,0.0,0.0,42,0.00,,---,0.00,VWS V14.01,2013-05-05 23:22:00,
2013-05-05 19:27:00,66.7,42.9,29.99,North,5,0.0,0.0,42,0.00,,---,0.00,VWS V14.01,2013-05-05 23:27:00,
2013-05-05 19:32:00,66.7,44.1,29.98,NNW,339,0.0,0.0,44,0.00,,---,0.00,VWS V14.01,2013-05-05 23:32:00,
2013-05-05 19:37:00,67.0,43.8,29.98,NNW,342,0.0,0.0,43,0.00,,---,0.00,VWS V14.01,2013-05-05 23:37:00,
2013-05-05 19:42:00,67.6,43.7,29.98,NW,307,0.0,1.0,42,0.00,,---,0.00,VWS V14.01,2013-05-05 23:42:00,
2013-05-05 19:47:00,67.4,43.5,29.99,WNW,299,1.0,2.0,42,0.00,,---,0.00,VWS V14.01,2013-05-05 23:47:00,
2013-05-05 19:52:00,67.0,43.2,29.99,WNW,295,0.0,2.0,42,0.00,,---,0.00,VWS V14.01,2013-05-05 23:52:00,
2013-05-05 19:57:00,66.9,43.1,29.99,WNW,297,0.0,3.0,42,0.00,,---,0.00,VWS V14.01,2013-05-05 23:57:00,
2013-05-05 20:02:00,66.9,42.5,29.99,WNW,294,0.0,0.0,41,0.00,,---,0.00,VWS V14.01,2013-05-06 00:02:00,
2013-05-05 20:07:00,67.0,42.5,29.99,WNW,300,0.0,2.0,41,0.00,,---,0.00,VWS V14.01,2013-05-06 00:07:00,
2013-05-05 20:12:00,67.0,42.5,29.99,WNW,290,2.0,4.0,41,0.00,,---,0.00,VWS V14.01,2013-05-06 00:12:00,
2013-05-05 20:17:00,66.8,43.6,29.99,WNW,290,3.0,4.0,43,0.00,,---,0.00,VWS V14.01,2013-05-06 00:17:00,
2013-05-05 20:22:00,66.3,43.2,29.99,WNW,284,3.0,3.0,43,0.00,,---,0.00,VWS V14.01,2013-05-06 00:22:00,
2013-05-05 20:27:00,65.7,42.6,29.99,WNW,290,3.0,4.0,43,0.00,,---,0.00,VWS V14.01,2013-05-06 00:27:00,
2013-05-05 20:32:00,64.9,43.1,30.00,WNW,284,4.0,4.0,45,0.00,,---,0.00,VWS V14.01,2013-05-06 00:32:00,
2013-05-05 20:37:00,64.2,42.4,30.00,WNW,284,3.0,3.0,45,0.00,,---,0.00,VWS V14.01,2013-05-06 00:37:00,
2013-05-05 20:42:00,63.6,42.5,30.00,WNW,284,3.0,4.0,46,0.00,,---,0.00,VWS V14.01,2013-05-06 00:42:00,
2013-05-05 20:48:00,63.1,43.1,30.00,WNW,284,4.0,4.0,48,0.00,,---,0.00,VWS V14.01,2013-05-06 00:48:00,
2013-05-05 20:53:00,62.5,42.0,30.00,WNW,284,3.0,4.0,47,0.00,,---,0.00,VWS V14.01,2013-05-06 00:53:00,
2013-05-05 20:58:00,62.2,41.2,30.00,WNW,284,3.0,3.0,46,0.00,,---,0.00,VWS V14.01,2013-05-06 00:58:00,
2013-05-05 21:03:00,62.1,42.2,30.00,WNW,284,3.0,3.0,48,0.00,,---,0.00,VWS V14.01,2013-05-06 01:03:00,
2013-05-05 21:08:00,61.9,40.9,30.00,WNW,284,4.0,4.0,46,0.00,,---,0.00,VWS V14.01,2013-05-06 01:08:00,
2013-05-05 21:13:00,61.8,40.8,30.00,WNW,284,2.0,2.0,46,0.00,,---,0.00,VWS V14.01,2013-05-06 01:13:00,
2013-05-05 21:18:00,61.8,41.4,30.00,WNW,284,1.0,3.0,47,0.00,,---,0.00,VWS V14.01,2013-05-06 01:18:00,
2013-05-05 21:23:00,61.7,40.7,30.00,WNW,284,1.0,3.0,46,0.00,,---,0.00,VWS V14.01,2013-05-06 01:23:00,
2013-05-05 21:28:00,61.5,41.1,30.00,WNW,284,0.0,2.0,47,0.00,,---,0.00,VWS V14.01,2013-05-06 01:28:00,
2013-05-05 21:33:00,61.2,40.8,30.01,WNW,284,0.0,2.0,47,0.00,,---,0.00,VWS V14.01,2013-05-06 01:33:00,
2013-05-05 21:38:00,61.1,41.3,30.01,SW,223,0.0,0.0,48,0.00,,---,0.00,VWS V14.01,2013-05-06 01:38:00,
2013-05-05 21:43:00,61.0,41.7,30.01,SW,226,0.0,0.0,49,0.00,,---,0.00,VWS V14.01,2013-05-06 01:43:00,
2013-05-05 21:48:00,61.0,41.2,30.01,SW,217,0.0,0.0,48,0.00,,---,0.00,VWS V14.01,2013-05-06 01:48:00,
2013-05-05 21:53:00,60.9,41.1,30.01,ESE,114,1.0,9.0,48,0.00,,---,0.00,VWS V14.01,2013-05-06 01:53:00,
2013-05-05 21:58:00,60.5,41.3,30.01,SE,141,2.0,2.0,49,0.00,,---,0.00,VWS V14.01,2013-05-06 01:58:00,
2013-05-05 22:03:00,60.2,40.5,30.01,SSE,161,0.0,1.0,48,0.00,,---,0.00,VWS V14.01,2013-05-06 02:03:00,
2013-05-05 22:08:00,60.1,40.9,30.01,SSE,161,3.0,3.0,49,0.00,,---,0.00,VWS V14.01,2013-05-06 02:08:00,
2013-05-05 22:13:00,60.3,40.0,30.01,SE,146,4.0,6.0,47,0.00,,---,0.00,VWS V14.01,2013-05-06 02:13:00,
2013-05-05 22:18:00,60.9,39.4,30.01,SSE,155,6.0,7.0,45,0.00,,---,0.00,VWS V14.01,2013-05-06 02:18:00,
2013-05-05 22:23:00,61.5,39.4,30.02,SSE,159,1.0,4.0,44,0.00,,---,0.00,VWS V14.01,2013-05-06 02:23:00,
2013-05-05 22:28:00,61.7,39.0,30.02,South,178,2.0,3.0,43,0.00,,---,0.00,VWS V14.01,2013-05-06 02:28:00,
2013-05-05 22:33:00,61.8,38.5,30.02,SE,142,2.0,4.0,42,0.00,,---,0.00,VWS V14.01,2013-05-06 02:33:00,
2013-05-05 22:38:00,61.9,38.0,30.02,SSE,152,4.0,4.0,41,0.00,,---,0.00,VWS V14.01,2013-05-06 02:38:00,
2013-05-05 22:43:00,62.0,38.7,30.02,SE,142,4.0,8.0,42,0.00,,---,0.00,VWS V14.01,2013-05-06 02:43:00,
2013-05-05 22:48:00,62.1,38.8,30.01,SE,144,2.0,5.0,42,0.00,,---,0.00,VWS V14.01,2013-05-06 02:48:00,
2013-05-05 22:53:00,62.3,38.9,30.01,SSE,158,1.0,5.0,42,0.00,,---,0.00,VWS V14.01,2013-05-06 02:53:00,
2013-05-05 22:58:00,62.3,38.9,30.02,SE,137,4.0,7.0,42,0.00,,---,0.00,VWS V14.01,2013-05-06 02:58:00,
2013-05-05 23:03:00,62.2,38.8,30.02,SSE,149,4.0,10.0,42,0.00,,---,0.00,VWS V14.01,2013-05-06 03:03:00,
2013-05-05 23:08:00,62.3,38.9,30.02,SSE,155,5.0,9.0,42,0.00,,---,0.00,VWS V14.01,2013-05-06 03:08:00,
2013-05-05 23:13:00,62.3,38.3,30.01,SE,138,6.0,8.0,41,0.00,,---,0.00,VWS V14.01,2013-05-06 03:13:00,
2013-05-05 23:18:00,62.3,38.9,30.02,SSE,155,3.0,8.0,42,0.00,,---,0.00,VWS V14.01,2013-05-06 03:18:00,
2013-05-05 23:23:00,62.1,38.8,30.01,SE,146,2.0,5.0,42,0.00,,---,0.00,VWS V14.01,2013-05-06 03:23:00,
2013-05-05 23:28:00,61.9,38.0,30.01,SE,146,7.0,7.0,41,0.00,,---,0.00,VWS V14.01,2013-05-06 03:28:00,
2013-05-05 23:33:00,61.7,38.4,30.01,SSE,153,3.0,6.0,42,0.00,,---,0.00,VWS V14.01,2013-05-06 03:33:00,
2013-05-05 23:38:00,61.4,38.1,30.01,South,185,3.0,7.0,42,0.00,,---,0.00,VWS V14.01,2013-05-06 03:38:00,
2013-05-05 23:44:00,61.1,37.9,30.01,SSE,160,1.0,5.0,42,0.00,,---,0.00,VWS V14.01,2013-05-06 03:44:00,
2013-05-05 23:49:00,60.8,37.6,30.01,SE,142,4.0,6.0,42,0.00,,---,0.00,VWS V14.01,2013-05-06 03:49:00,
2013-05-05 23:54:00,60.6,37.4,30.01,SSE,157,5.0,7.0,42,0.00,,---,0.00,VWS V14.01,2013-05-06 03:54:00,
2013-05-05 23:59:00,60.5,37.9,30.01,SSE,159,2.0,6.0,43,0.00,,---,0.00,VWS V14.01,2013-05-06 03:59:00,